createdAt,value
2017-08-14T00:02:11.482Z,75.95
2017-08-14T00:04:39.382Z,76.19
2017-08-14T00:07:07.688Z,76.18
2017-08-14T00:09:35.594Z,76.83
2017-08-14T00:12:03.496Z,77.53
2017-08-14T00:14:31.803Z,77.73
2017-08-14T00:16:59.699Z,77.92
2017-08-14T00:19:27.781Z,78.13
2017-08-14T00:21:55.688Z,79.02
2017-08-14T00:24:23.992Z,79.36
2017-08-14T00:26:51.904Z,79.36
2017-08-14T00:29:19.812Z,78.99
2017-08-14T00:31:47.719Z,79.28
2017-08-14T00:34:15.624Z,79.24
2017-08-14T00:36:43.984Z,79.93
2017-08-14T00:39:11.879Z,79.99
2017-08-14T00:41:40.504Z,79.96
2017-08-14T00:44:08.406Z,80.62
2017-08-14T00:46:36.307Z,80.68
2017-08-14T00:49:04.303Z,80.64
2017-08-14T00:51:32.460Z,81.22
2017-08-14T00:54:00.380Z,81.16
2017-08-14T00:56:28.292Z,81.40
2017-08-14T00:58:56.470Z,81.53
2017-08-14T01:01:24.366Z,81.76
2017-08-14T01:03:52.287Z,82.27
2017-08-14T01:06:20.484Z,81.96
2017-08-14T01:08:48.701Z,82.72
2017-08-14T01:11:16.608Z,82.12
2017-08-14T01:13:44.923Z,82.66
2017-08-14T01:16:12.831Z,82.36
2017-08-14T01:18:40.762Z,82.59
2017-08-14T01:21:08.671Z,82.83
2017-08-14T01:23:36.599Z,83.20
2017-08-14T01:26:05.338Z,83.42
2017-08-14T01:28:33.230Z,83.62
2017-08-14T01:31:01.532Z,83.75
2017-08-14T01:33:29.557Z,83.58
2017-08-14T01:35:57.468Z,83.37
2017-08-14T01:38:25.374Z,83.68
2017-08-14T01:40:53.497Z,84.21
2017-08-14T01:43:21.406Z,84.36
2017-08-14T01:45:49.457Z,84.24
2017-08-14T01:48:17.572Z,84.23
2017-08-14T01:50:45.479Z,84.36
2017-08-14T01:53:13.393Z,84.79
2017-08-14T01:55:41.336Z,85.15
2017-08-14T01:58:09.235Z,84.66
2017-08-14T02:00:37.465Z,85.17
2017-08-14T02:03:05.377Z,85.04
2017-08-14T02:05:33.295Z,84.67
2017-08-14T02:08:01.605Z,84.62
2017-08-14T02:10:29.702Z,84.72
2017-08-14T02:12:57.639Z,84.46
2017-08-14T02:15:25.542Z,83.96
2017-08-14T02:17:53.456Z,83.59
2017-08-14T02:20:21.752Z,83.32
2017-08-14T02:22:49.668Z,82.97
2017-08-14T02:25:17.566Z,82.36
2017-08-14T02:27:45.886Z,82.15
2017-08-14T02:30:13.800Z,81.20
2017-08-14T02:32:41.857Z,80.25
2017-08-14T02:35:10.166Z,80.25
2017-08-14T02:37:38.466Z,79.79
2017-08-14T02:40:06.371Z,79.20
2017-08-14T02:42:34.281Z,79.41
2017-08-14T02:45:02.588Z,79.57
2017-08-14T02:47:30.523Z,79.40
2017-08-14T02:49:59.122Z,78.67
2017-08-14T02:52:27.015Z,77.62
2017-08-14T02:54:54.919Z,77.81
2017-08-14T02:57:22.822Z,78.33
2017-08-14T02:59:51.168Z,77.32
2017-08-14T03:02:19.066Z,77.67
2017-08-14T03:04:47.242Z,76.63
2017-08-14T03:07:15.146Z,76.15
2017-08-14T03:09:43.052Z,75.64
2017-08-14T03:12:11.012Z,75.51
2017-08-14T03:14:38.914Z,75.79
2017-08-14T03:17:07.249Z,76.46
2017-08-14T03:19:35.147Z,74.77
2017-08-14T03:22:03.702Z,74.49
2017-08-14T03:24:31.599Z,74.42
2017-08-14T03:26:59.904Z,75.41
2017-08-14T03:29:27.832Z,74.72
2017-08-14T03:31:55.790Z,74.71
2017-08-14T03:34:23.708Z,75.31
2017-08-14T03:36:51.620Z,74.98
2017-08-14T03:39:19.535Z,76.02
2017-08-14T03:41:47.856Z,75.98
2017-08-14T03:44:15.773Z,75.85
2017-08-14T03:46:44.072Z,76.32
2017-08-14T03:49:11.996Z,76.28
2017-08-14T03:51:39.908Z,75.95
2017-08-14T03:54:07.993Z,76.61
2017-08-14T03:56:35.902Z,75.89
2017-08-14T03:59:03.794Z,76.20
2017-08-14T04:01:32.124Z,76.38
2017-08-14T04:04:00.028Z,75.92
2017-08-14T04:06:27.978Z,77.14
2017-08-14T04:08:55.892Z,76.16
2017-08-14T04:11:24.187Z,76.62
2017-08-14T04:13:52.102Z,75.88
2017-08-14T04:16:20.002Z,75.93
2017-08-14T04:18:48.311Z,75.92
2017-08-14T04:21:16.210Z,75.20
2017-08-14T04:23:44.115Z,75.19
2017-08-14T04:26:12.567Z,75.24
2017-08-14T04:28:40.461Z,74.92
2017-08-14T04:31:08.756Z,74.97
2017-08-14T04:33:36.662Z,74.01
2017-08-14T04:36:04.577Z,73.27
2017-08-14T04:38:32.883Z,73.21
2017-08-14T04:41:00.788Z,72.41
2017-08-14T04:43:28.694Z,72.10
2017-08-14T04:45:57.001Z,72.18
2017-08-14T04:48:24.919Z,71.79
2017-08-14T04:50:52.823Z,70.85
2017-08-14T04:53:20.733Z,69.02
2017-08-14T04:55:48.630Z,66.14
2017-08-14T04:58:16.689Z,63.60
2017-08-14T05:00:44.585Z,61.04
2017-08-14T05:03:12.882Z,57.13
2017-08-14T05:05:40.807Z,54.87
2017-08-14T05:08:09.136Z,51.87
2017-08-14T05:10:37.056Z,48.28
2017-08-14T05:13:04.946Z,47.36
2017-08-14T05:15:33.518Z,45.75
2017-08-14T05:18:01.414Z,45.84
2017-08-14T05:20:29.316Z,47.85
2017-08-14T05:22:57.218Z,45.31
2017-08-14T05:25:25.137Z,45.51
2017-08-14T05:27:53.068Z,44.52
2017-08-14T05:30:20.959Z,43.85
2017-08-14T05:32:48.898Z,42.65
2017-08-14T05:35:16.800Z,41.57
2017-08-14T05:37:44.719Z,40.70
2017-08-14T05:40:12.623Z,42.62
2017-08-14T05:42:41.062Z,41.90
2017-08-14T05:45:08.967Z,41.20
2017-08-14T05:47:36.863Z,39.71
2017-08-14T05:50:04.774Z,40.01
2017-08-14T05:52:32.666Z,39.38
2017-08-14T05:55:01.020Z,37.59
2017-08-14T05:57:28.931Z,36.51
2017-08-14T05:59:57.303Z,33.15
2017-08-14T06:02:25.656Z,36.01
2017-08-14T06:04:54.018Z,34.49
2017-08-14T06:07:22.358Z,35.92
2017-08-14T06:09:50.767Z,34.89
2017-08-14T06:12:19.399Z,32.31
2017-08-14T06:14:47.751Z,32.91
2017-08-14T06:17:16.104Z,33.41
2017-08-14T06:19:44.461Z,33.50
2017-08-14T06:22:12.803Z,32.34
2017-08-14T06:24:41.168Z,33.67
2017-08-14T06:27:09.515Z,30.94
2017-08-14T06:29:37.863Z,28.58
2017-08-14T06:32:06.680Z,29.04
2017-08-14T06:34:35.033Z,28.45
2017-08-14T06:37:03.770Z,26.79
2017-08-14T06:39:32.128Z,29.30
2017-08-14T06:42:00.470Z,29.63
2017-08-14T06:44:29.414Z,31.07
2017-08-14T06:46:57.771Z,29.93
2017-08-14T06:49:26.111Z,29.24
2017-08-14T06:51:54.463Z,30.36
2017-08-14T06:54:22.817Z,30.02
2017-08-14T06:56:51.181Z,29.60
2017-08-14T06:59:19.528Z,28.86
2017-08-14T07:01:47.888Z,28.94
2017-08-14T07:04:16.237Z,28.12
2017-08-14T07:06:44.587Z,27.74
2017-08-14T07:09:12.952Z,27.96
2017-08-14T07:11:41.701Z,28.21
2017-08-14T07:14:10.048Z,27.32
2017-08-14T07:16:38.394Z,25.88
2017-08-14T07:19:07.338Z,27.03
2017-08-14T07:21:35.689Z,26.45
2017-08-14T07:24:04.086Z,25.48
2017-08-14T07:26:32.451Z,23.35
2017-08-14T07:29:00.801Z,25.03
2017-08-14T07:31:29.160Z,24.74
2017-08-14T07:33:57.507Z,24.78
2017-08-14T07:36:25.859Z,22.89
2017-08-14T07:38:54.207Z,23.69
2017-08-14T07:41:22.572Z,26.40
2017-08-14T07:43:50.907Z,25.95
2017-08-14T07:46:19.256Z,25.17
2017-08-14T07:48:47.995Z,25.03
2017-08-14T07:51:16.331Z,24.68
2017-08-14T07:53:45.187Z,24.94
2017-08-14T07:56:13.531Z,24.43
2017-08-14T07:58:41.895Z,26.21
2017-08-14T08:01:10.240Z,26.89
2017-08-14T08:03:38.607Z,26.56
2017-08-14T08:06:06.959Z,25.48
2017-08-14T08:08:35.315Z,23.54
2017-08-14T08:11:03.655Z,24.33
2017-08-14T08:13:32.012Z,22.33
2017-08-14T08:16:00.468Z,25.45
2017-08-14T08:18:28.823Z,25.61
2017-08-14T08:20:57.567Z,24.08
2017-08-14T08:23:25.913Z,23.93
2017-08-14T08:25:54.263Z,24.06
2017-08-14T08:28:23.009Z,23.23
2017-08-14T08:30:51.659Z,24.28
2017-08-14T08:33:20.311Z,25.07
2017-08-14T08:35:49.044Z,25.19
2017-08-14T08:38:17.395Z,25.08
2017-08-14T08:40:46.141Z,22.78
2017-08-14T08:43:14.906Z,23.33
2017-08-14T08:45:43.265Z,23.08
2017-08-14T08:48:11.623Z,21.39
2017-08-14T08:50:40.363Z,21.19
2017-08-14T08:53:09.038Z,21.35
2017-08-14T08:55:37.379Z,19.91
2017-08-14T08:58:06.129Z,19.78
2017-08-14T09:00:34.483Z,20.32
2017-08-14T09:03:02.833Z,20.44
2017-08-14T09:05:31.500Z,20.42
2017-08-14T09:08:00.249Z,21.16
2017-08-14T09:10:28.603Z,23.19
2017-08-14T09:12:57.250Z,26.16
2017-08-14T09:15:25.603Z,25.90
2017-08-14T09:17:53.957Z,23.68
2017-08-14T09:20:22.420Z,20.50
2017-08-14T09:22:50.764Z,19.82
2017-08-14T09:25:19.769Z,19.43
2017-08-14T09:27:48.515Z,20.99
2017-08-14T09:30:16.855Z,21.90
2017-08-14T09:32:45.212Z,23.22
2017-08-14T09:35:13.950Z,24.32
2017-08-14T09:37:42.312Z,26.45
2017-08-14T09:40:10.652Z,25.97
2017-08-14T09:42:39.017Z,27.18
2017-08-14T09:45:07.359Z,26.64
2017-08-14T09:47:35.703Z,25.72
2017-08-14T09:50:04.441Z,23.51
2017-08-14T09:52:33.119Z,23.69
2017-08-14T09:55:01.463Z,23.68
2017-08-14T09:57:30.130Z,22.69
2017-08-14T09:59:58.888Z,21.99
2017-08-14T10:02:27.237Z,25.49
2017-08-14T10:04:55.609Z,25.50
2017-08-14T10:07:23.969Z,25.96
2017-08-14T10:09:52.732Z,26.84
2017-08-14T10:12:21.083Z,25.00
2017-08-14T10:14:51.044Z,24.66
2017-08-14T10:17:19.780Z,24.72
2017-08-14T10:19:48.373Z,22.34
2017-08-14T10:22:16.715Z,23.66
2017-08-14T10:24:45.068Z,23.84
2017-08-14T10:27:13.410Z,23.94
2017-08-14T10:29:41.756Z,23.67
2017-08-14T10:32:10.098Z,23.22
2017-08-14T10:34:38.458Z,23.47
2017-08-14T10:37:07.128Z,23.86
2017-08-14T10:39:35.478Z,23.49
2017-08-14T10:42:03.841Z,23.03
2017-08-14T10:44:32.215Z,21.89
2017-08-14T10:47:00.964Z,22.42
2017-08-14T10:49:29.327Z,22.33
2017-08-14T10:51:57.684Z,21.81
2017-08-14T10:54:26.035Z,23.40
2017-08-14T10:56:54.770Z,26.24
2017-08-14T10:59:23.265Z,29.58
2017-08-14T11:01:51.612Z,31.42
2017-08-14T11:04:19.972Z,32.73
2017-08-14T11:06:48.314Z,33.03
2017-08-14T11:09:16.664Z,34.11
2017-08-14T11:11:45.029Z,32.23
2017-08-14T11:14:13.371Z,33.14
2017-08-14T11:16:41.719Z,32.98
2017-08-14T11:19:10.072Z,34.58
2017-08-14T11:21:38.424Z,34.78
2017-08-14T11:24:07.161Z,34.14
2017-08-14T11:26:35.734Z,32.95
2017-08-14T11:29:04.074Z,32.66
2017-08-14T11:31:32.424Z,32.90
2017-08-14T11:34:00.780Z,34.08
2017-08-14T11:36:29.133Z,34.33
2017-08-14T11:38:57.483Z,34.70
2017-08-14T11:41:26.222Z,35.83
2017-08-14T11:43:54.575Z,36.42
2017-08-14T11:46:22.925Z,36.94
2017-08-14T11:48:51.266Z,37.50
2017-08-14T11:51:19.893Z,36.72
2017-08-14T11:53:48.833Z,36.46
2017-08-14T11:56:17.175Z,36.31
2017-08-14T11:58:45.921Z,36.70
2017-08-14T12:01:14.281Z,37.00
2017-08-14T12:03:42.632Z,36.95
2017-08-14T12:06:10.978Z,36.43
2017-08-14T12:08:39.333Z,37.31
2017-08-14T12:11:07.682Z,37.20
2017-08-14T12:13:36.022Z,36.87
2017-08-14T12:16:04.767Z,36.40
2017-08-14T12:18:33.123Z,36.80
2017-08-14T12:21:01.611Z,36.48
2017-08-14T12:23:29.954Z,37.70
2017-08-14T12:25:58.700Z,37.65
2017-08-14T12:28:27.079Z,37.99
2017-08-14T12:30:55.424Z,39.12
2017-08-14T12:33:23.846Z,39.28
2017-08-14T12:35:52.197Z,39.09
2017-08-14T12:38:20.557Z,39.26
2017-08-14T12:40:48.980Z,37.87
2017-08-14T12:43:17.332Z,36.81
2017-08-14T12:45:45.676Z,37.15
2017-08-14T12:48:14.615Z,35.73
2017-08-14T12:50:43.639Z,35.92
2017-08-14T12:53:11.986Z,35.52
2017-08-14T12:55:40.340Z,35.28
2017-08-14T12:58:08.697Z,34.62
2017-08-14T13:00:37.051Z,35.18
2017-08-14T13:03:05.623Z,36.02
2017-08-14T13:05:33.981Z,35.95
2017-08-14T13:08:02.322Z,35.50
2017-08-14T13:10:31.080Z,35.35
2017-08-14T13:12:59.418Z,35.48
2017-08-14T13:15:27.980Z,36.27
2017-08-14T13:17:56.963Z,35.67
2017-08-14T13:20:25.687Z,35.66
2017-08-14T13:22:54.056Z,35.34
2017-08-14T13:25:22.474Z,36.06
2017-08-14T13:27:50.819Z,36.46
2017-08-14T13:30:19.159Z,37.47
2017-08-14T13:32:47.527Z,37.83
2017-08-14T13:35:15.876Z,37.99
2017-08-14T13:37:44.229Z,38.56
2017-08-14T13:40:12.580Z,38.77
2017-08-14T13:42:40.941Z,39.00
2017-08-14T13:45:09.549Z,38.79
2017-08-14T13:47:38.490Z,38.62
2017-08-14T13:50:06.849Z,37.86
2017-08-14T13:52:35.202Z,38.39
2017-08-14T13:55:03.960Z,38.48
2017-08-14T13:57:32.303Z,38.77
2017-08-14T14:00:00.653Z,38.14
2017-08-14T14:02:29.389Z,38.53
2017-08-14T14:04:57.749Z,37.53
2017-08-14T14:07:26.100Z,38.07
2017-08-14T14:09:54.844Z,37.25
2017-08-14T14:12:23.182Z,37.52
2017-08-14T14:14:51.635Z,36.99
2017-08-14T14:17:20.378Z,36.94
2017-08-14T14:19:48.729Z,37.17
2017-08-14T14:22:17.089Z,37.60
2017-08-14T14:24:45.829Z,37.64
2017-08-14T14:27:14.169Z,38.40
2017-08-14T14:29:42.524Z,39.24
2017-08-14T14:32:10.885Z,40.37
2017-08-14T14:34:39.224Z,40.32
2017-08-14T14:37:07.578Z,40.50
2017-08-14T14:39:36.316Z,40.23
2017-08-14T14:42:04.991Z,38.07
2017-08-14T14:44:33.340Z,39.08
2017-08-14T14:47:01.670Z,39.10
2017-08-14T14:49:30.032Z,39.47
2017-08-14T14:51:58.376Z,40.46
2017-08-14T14:54:26.723Z,40.43
2017-08-14T14:56:55.072Z,41.26
2017-08-14T14:59:23.423Z,40.99
2017-08-14T15:01:51.888Z,41.15
2017-08-14T15:04:20.628Z,39.71
2017-08-14T15:06:49.070Z,39.86
2017-08-14T15:09:17.583Z,39.59
2017-08-14T15:11:45.936Z,39.45
2017-08-14T15:14:14.278Z,39.24
2017-08-14T15:16:42.632Z,38.85
2017-08-14T15:19:10.966Z,38.83
2017-08-14T15:21:39.323Z,39.78
2017-08-14T15:24:08.057Z,40.23
2017-08-14T15:26:36.429Z,40.56
2017-08-14T15:29:04.776Z,40.45
2017-08-14T15:31:33.721Z,41.03
2017-08-14T15:34:02.059Z,40.83
2017-08-14T15:36:30.395Z,41.12
2017-08-14T15:38:58.757Z,41.21
2017-08-14T15:41:27.126Z,41.38
2017-08-14T15:43:55.500Z,41.00
2017-08-14T15:46:23.849Z,40.92
2017-08-14T15:48:52.600Z,40.88
2017-08-14T15:51:20.952Z,40.50
2017-08-14T15:53:49.321Z,40.62
2017-08-14T15:56:17.668Z,41.34
2017-08-14T15:58:46.598Z,41.38
2017-08-14T16:01:14.952Z,42.06
2017-08-14T16:03:43.295Z,41.78
2017-08-14T16:06:11.657Z,41.84
2017-08-14T16:08:39.999Z,42.45
2017-08-14T16:11:08.356Z,42.48
2017-08-14T16:13:37.101Z,42.61
2017-08-14T16:16:05.451Z,42.38
2017-08-14T16:18:33.798Z,42.78
2017-08-14T16:21:02.539Z,43.14
2017-08-14T16:23:30.890Z,43.46
2017-08-14T16:25:59.408Z,43.64
2017-08-14T16:28:27.750Z,43.39
2017-08-14T16:30:56.104Z,43.64
2017-08-14T16:33:24.860Z,43.99
2017-08-14T16:35:53.218Z,43.70
2017-08-14T16:38:21.579Z,43.69
2017-08-14T16:40:49.928Z,44.02
2017-08-14T16:43:18.274Z,44.18
2017-08-14T16:45:46.610Z,44.33
2017-08-14T16:48:14.952Z,44.19
2017-08-14T16:50:43.299Z,44.38
2017-08-14T16:53:11.656Z,44.65
2017-08-14T16:55:40.162Z,45.32
2017-08-14T16:58:08.537Z,45.25
2017-08-14T17:00:36.888Z,45.50
2017-08-14T17:03:05.231Z,45.49
2017-08-14T17:05:33.584Z,46.10
2017-08-14T17:08:01.936Z,46.02
2017-08-14T17:10:30.278Z,45.96
2017-08-14T17:12:59.019Z,46.38
2017-08-14T17:15:27.371Z,46.57
2017-08-14T17:17:55.741Z,46.66
2017-08-14T17:20:24.080Z,46.26
2017-08-14T17:22:52.631Z,47.01
2017-08-14T17:25:20.976Z,47.05
2017-08-14T17:27:49.323Z,47.62
2017-08-14T17:30:17.680Z,47.19
2017-08-14T17:32:46.031Z,47.21
2017-08-14T17:35:14.439Z,47.26
2017-08-14T17:37:42.797Z,47.27
2017-08-14T17:40:11.148Z,47.80
2017-08-14T17:42:39.905Z,47.80
2017-08-14T17:45:08.268Z,48.16
2017-08-14T17:47:36.612Z,48.57
2017-08-14T17:50:04.955Z,48.83
2017-08-14T17:52:33.295Z,49.14
2017-08-14T17:55:01.779Z,49.49
2017-08-14T17:57:30.140Z,49.67
2017-08-14T17:59:58.474Z,49.98
2017-08-14T18:02:26.818Z,50.31
2017-08-14T18:04:55.200Z,50.40
2017-08-14T18:07:23.558Z,50.49
2017-08-14T18:09:51.959Z,50.50
2017-08-14T18:12:20.315Z,50.51
2017-08-14T18:14:48.662Z,50.95
2017-08-14T18:17:17.516Z,51.27
2017-08-14T18:19:45.876Z,51.43
2017-08-14T18:22:14.259Z,51.54
2017-08-14T18:24:42.620Z,51.80
2017-08-14T18:27:10.980Z,52.08
2017-08-14T18:29:39.737Z,52.53
2017-08-14T18:32:08.079Z,52.79
2017-08-14T18:34:36.431Z,53.07
2017-08-14T18:37:04.775Z,53.24
2017-08-14T18:39:33.129Z,53.63
2017-08-14T18:42:01.479Z,54.01
2017-08-14T18:44:29.815Z,54.36
2017-08-14T18:46:58.162Z,54.65
2017-08-14T18:49:26.506Z,54.76
2017-08-14T18:51:55.015Z,55.04
2017-08-14T18:54:23.368Z,55.43
2017-08-14T18:56:51.725Z,55.43
2017-08-14T18:59:20.480Z,55.79
2017-08-14T19:01:48.831Z,55.79
2017-08-14T19:04:17.227Z,55.77
2017-08-14T19:06:45.594Z,56.18
2017-08-14T19:09:15.308Z,56.35
2017-08-14T19:11:42.351Z,56.43
2017-08-14T19:14:10.721Z,56.75
2017-08-14T19:16:39.067Z,56.93
2017-08-14T19:19:07.819Z,57.39
2017-08-14T19:21:36.170Z,57.73
2017-08-14T19:24:04.679Z,57.69
2017-08-14T19:26:33.303Z,57.99
2017-08-14T19:29:02.059Z,58.18
2017-08-14T19:31:30.420Z,58.21
2017-08-14T19:33:58.764Z,58.54
2017-08-14T19:36:27.121Z,58.59
2017-08-14T19:38:55.467Z,58.64
2017-08-14T19:41:23.836Z,58.76
2017-08-14T19:43:52.190Z,59.03
2017-08-14T19:46:20.821Z,59.04
2017-08-14T19:48:49.173Z,59.54
2017-08-14T19:51:17.516Z,59.91
2017-08-14T19:53:46.276Z,60.11
2017-08-14T19:56:14.629Z,60.51
2017-08-14T19:58:42.987Z,60.56
2017-08-14T20:01:11.336Z,61.12
2017-08-14T20:03:40.098Z,61.57
2017-08-14T20:06:08.444Z,61.95
2017-08-14T20:08:36.805Z,62.21
2017-08-14T20:11:05.144Z,62.58
2017-08-14T20:13:33.618Z,62.60
2017-08-14T20:16:02.240Z,62.72
2017-08-14T20:18:30.593Z,62.78
2017-08-14T20:20:59.191Z,62.87
2017-08-14T20:23:27.932Z,63.26
2017-08-14T20:25:56.724Z,63.56
2017-08-14T20:28:25.078Z,63.85
2017-08-14T20:30:53.424Z,64.12
2017-08-14T20:33:21.776Z,64.31
2017-08-14T20:35:50.135Z,64.51
2017-08-14T20:38:18.483Z,64.52
2017-08-14T20:40:46.819Z,64.84
2017-08-14T20:43:15.168Z,65.30
2017-08-14T20:45:43.521Z,65.84
2017-08-14T20:48:11.874Z,65.73
2017-08-14T20:50:40.233Z,66.07
2017-08-14T20:53:08.764Z,66.63
2017-08-14T20:55:37.109Z,66.71
2017-08-14T20:58:05.464Z,66.64
2017-08-14T21:00:33.817Z,67.11
2017-08-14T21:03:02.159Z,67.21
2017-08-14T21:05:30.902Z,67.21
2017-08-14T21:07:59.257Z,67.49
2017-08-14T21:10:27.632Z,67.73
2017-08-14T21:12:55.980Z,67.76
2017-08-14T21:15:24.349Z,68.04
2017-08-14T21:17:52.687Z,67.83
2017-08-14T21:20:21.052Z,67.60
2017-08-14T21:22:49.412Z,68.04
2017-08-14T21:25:18.741Z,67.79
2017-08-14T21:27:47.093Z,67.86
2017-08-14T21:30:15.456Z,67.65
2017-08-14T21:32:44.216Z,67.82
2017-08-14T21:35:12.573Z,67.96
2017-08-14T21:37:40.922Z,67.77
2017-08-14T21:40:09.281Z,68.28
2017-08-14T21:42:37.632Z,68.30
2017-08-14T21:45:05.987Z,68.56
2017-08-14T21:47:34.586Z,68.54
2017-08-14T21:50:02.941Z,68.65
2017-08-14T21:52:31.292Z,69.09
2017-08-14T21:55:00.044Z,69.02
2017-08-14T21:57:28.388Z,69.52
2017-08-14T21:59:56.747Z,69.70
2017-08-14T22:02:25.488Z,69.50
2017-08-14T22:04:53.836Z,69.61
2017-08-14T22:07:22.175Z,69.83
2017-08-14T22:09:50.927Z,70.06
2017-08-14T22:12:20.013Z,70.36
2017-08-14T22:14:48.556Z,70.46
2017-08-14T22:17:17.304Z,70.44
2017-08-14T22:19:45.657Z,70.89
2017-08-14T22:22:14.016Z,70.93
2017-08-14T22:24:42.350Z,71.28
2017-08-14T22:27:10.713Z,71.45
2017-08-14T22:29:39.069Z,71.39
2017-08-14T22:32:07.692Z,71.81
2017-08-14T22:34:36.051Z,71.58
2017-08-14T22:37:04.381Z,72.30
2017-08-14T22:39:32.797Z,72.52
2017-08-14T22:42:01.143Z,72.58
2017-08-14T22:44:29.895Z,72.67
2017-08-14T22:46:58.235Z,72.75
2017-08-14T22:49:26.617Z,73.04
2017-08-14T22:51:55.888Z,73.31
2017-08-14T22:54:24.412Z,73.32
2017-08-14T22:56:52.756Z,73.29
2017-08-14T22:59:21.508Z,73.13
2017-08-14T23:01:49.864Z,73.14
2017-08-14T23:04:18.212Z,73.20
2017-08-14T23:06:46.559Z,73.11
2017-08-14T23:09:14.905Z,73.16
2017-08-14T23:11:43.255Z,72.93
2017-08-14T23:14:11.594Z,73.29
2017-08-14T23:16:39.956Z,73.44
2017-08-14T23:19:08.304Z,73.53
2017-08-14T23:21:36.804Z,73.62
2017-08-14T23:24:05.161Z,73.75
2017-08-14T23:26:33.507Z,73.62
2017-08-14T23:29:02.251Z,73.83
2017-08-14T23:31:30.604Z,73.82
2017-08-14T23:33:58.970Z,73.86
2017-08-14T23:36:27.317Z,73.80
2017-08-14T23:38:55.981Z,73.85
2017-08-14T23:41:24.342Z,74.14
2017-08-14T23:43:52.691Z,74.30
2017-08-14T23:46:21.038Z,74.39
2017-08-14T23:48:49.388Z,74.01
2017-08-14T23:51:17.745Z,74.25
2017-08-14T23:53:46.097Z,74.29
2017-08-14T23:56:14.450Z,74.50
2017-08-14T23:58:42.801Z,74.84
